This is the latest recevied weather packets stored in our database for station/object SQ5OUZ-8. If no packets are shown the sender has not sent any weather packets the latest 10 day(s).
| Time | Temp. | Humidity | Pressure | Rain* | Wind** | Luminosity | Snow |
|---|---|---|---|---|---|---|---|
| 1777774987 | 12.22° C | 61% | 1020 hPa | - | - | - | - |
| 1777773925 | 12.22° C | 60% | 1020 hPa | - | - | - | - |
| 1777770632 | 13.33° C | 58% | 1020 hPa | - | - | - | - |
| 1777768557 | 14.44° C | 55% | 1020 hPa | - | - | - | - |
| 1777767567 | 14.44° C | 55% | 1020 hPa | - | - | - | - |
| 1777765333 | 14.44° C | 56% | 1020 hPa | - | - | - | - |
| 1777764322 | 14.44° C | 56% | 1021 hPa | - | - | - | - |
| 1777763347 | 14.44° C | 57% | 1021 hPa | - | - | - | - |
| 1777761107 | 15° C | 55% | 1021 hPa | - | - | - | - |
| 1777760022 | 15.56° C | 53% | 1021 hPa | - | - | - | - |
| 1777759066 | 15.56° C | 52% | 1021 hPa | - | - | - | - |
| 1777757029 | 15.56° C | 52% | 1021 hPa | - | - | - | - |
| 1777755895 | 16.11° C | 52% | 1021 hPa | - | - | - | - |
| 1777752577 | 17.22° C | 47% | 1021 hPa | - | - | - | - |
| 1777750551 | 17.78° C | 43% | 1021 hPa | - | - | - | - |
| 1777749589 | 18.33° C | 39% | 1021 hPa | - | - | - | - |
| 1777746400 | 20.56° C | 32% | 1021 hPa | - | - | - | - |
| 1777745410 | 21.11° C | 30% | 1020 hPa | - | - | - | - |
| 1777742097 | 23.89° C | 25% | 1020 hPa | - | - | - | - |
| 1777741024 | 24.44° C | 24% | 1020 hPa | - | - | - | - |
| 1777739987 | 25° C | 24% | 1020 hPa | - | - | - | - |
| 1777737921 | 29.44° C | 19% | 1020 hPa | - | - | - | - |
| 1777736946 | 30° C | 18% | 1020 hPa | - | - | - | - |
| 1777735773 | 30° C | 19% | 1021 hPa | - | - | - | - |
| 1777734805 | 29.44° C | 18% | 1021 hPa | - | - | - | - |
* Rain since midnight (hover to see other rain measurements)
** Current wind speed in m/s (hover to see current wind gust speed)